sensor_id;sensor_type;location;lat;lon;timestamp;pressure;altitude;pressure_sealevel;temperature;humidity
3590;BME280;1809;48.470;9.226;2023-02-17T00:01:49;-16497.81;;;11.80;100.00
3590;BME280;1809;48.470;9.226;2023-02-17T00:04:15;-16499.63;;;11.86;100.00
3590;BME280;1809;48.470;9.226;2023-02-17T00:06:40;-16497.66;;;11.79;100.00
3590;BME280;1809;48.470;9.226;2023-02-17T00:09:05;-16497.94;;;11.80;100.00
3590;BME280;1809;48.470;9.226;2023-02-17T00:11:32;-16498.78;;;11.83;100.00
3590;BME280;1809;48.470;9.226;2023-02-17T00:13:58;-16495.41;;;11.71;100.00
3590;BME280;1809;48.470;9.226;2023-02-17T00:16:25;-16495.41;;;11.71;100.00
3590;BME280;1809;48.470;9.226;2023-02-17T00:18:53;-16498.38;;;11.82;100.00
3590;BME280;1809;48.470;9.226;2023-02-17T00:21:21;-16499.34;;;11.85;100.00
3590;BME280;1809;48.470;9.226;2023-02-17T00:23:49;-16497.38;;;11.78;100.00
3590;BME280;1809;48.470;9.226;2023-02-17T00:26:19;-16499.06;;;11.84;100.00
3590;BME280;1809;48.470;9.226;2023-02-17T00:28:46;-16497.09;;;11.77;100.00
3590;BME280;1809;48.470;9.226;2023-02-17T00:31:18;-16496.13;;;11.74;100.00
3590;BME280;1809;48.470;9.226;2023-02-17T00:33:44;-16499.78;;;11.87;100.00
3590;BME280;1809;48.470;9.226;2023-02-17T00:36:11;-16498.78;;;11.83;100.00
3590;BME280;1809;48.470;9.226;2023-02-17T00:38:37;-16500.47;;;11.90;100.00
3590;BME280;1809;48.470;9.226;2023-02-17T00:41:02;-16501.03;;;11.92;100.00
3590;BME280;1809;48.470;9.226;2023-02-17T00:43:28;-16501.59;;;11.94;100.00
3590;BME280;1809;48.470;9.226;2023-02-17T00:45:53;-16499.50;;;11.86;100.00
3590;BME280;1809;48.470;9.226;2023-02-17T00:48:19;-16498.50;;;11.82;100.00
3590;BME280;1809;48.470;9.226;2023-02-17T00:50:45;-16498.09;;;11.81;100.00
3590;BME280;1809;48.470;9.226;2023-02-17T00:53:10;-16500.19;;;11.89;100.00
3590;BME280;1809;48.470;9.226;2023-02-17T00:55:35;-16497.81;;;11.80;100.00
3590;BME280;1809;48.470;9.226;2023-02-17T00:58:01;-16498.78;;;11.83;100.00
3590;BME280;1809;48.470;9.226;2023-02-17T01:00:26;-16497.38;;;11.78;100.00
3590;BME280;1809;48.470;9.226;2023-02-17T01:02:51;-16498.94;;;11.84;100.00
3590;BME280;1809;48.470;9.226;2023-02-17T01:05:17;-16499.91;;;11.88;100.00
3590;BME280;1809;48.470;9.226;2023-02-17T01:07:42;-16497.66;;;11.79;100.00
3590;BME280;1809;48.470;9.226;2023-02-17T01:10:08;-16497.66;;;11.79;100.00
3590;BME280;1809;48.470;9.226;2023-02-17T01:12:33;-16499.34;;;11.85;100.00
3590;BME280;1809;48.470;9.226;2023-02-17T01:14:59;-16498.50;;;11.82;100.00
3590;BME280;1809;48.470;9.226;2023-02-17T01:17:24;-16498.50;;;11.82;100.00
3590;BME280;1809;48.470;9.226;2023-02-17T01:19:50;-16498.78;;;11.83;100.00
3590;BME280;1809;48.470;9.226;2023-02-17T01:22:15;-16495.28;;;11.71;100.00
3590;BME280;1809;48.470;9.226;2023-02-17T01:24:40;-16497.09;;;11.77;100.00
3590;BME280;1809;48.470;9.226;2023-02-17T01:27:06;-16498.38;;;11.82;100.00
3590;BME280;1809;48.470;9.226;2023-02-17T01:29:31;-16498.50;;;11.82;100.00
3590;BME280;1809;48.470;9.226;2023-02-17T01:31:57;-16498.09;;;11.81;100.00
3590;BME280;1809;48.470;9.226;2023-02-17T01:34:22;-16498.94;;;11.84;100.00
3590;BME280;1809;48.470;9.226;2023-02-17T01:36:47;-16494.28;;;11.67;100.00
3590;BME280;1809;48.470;9.226;2023-02-17T01:39:14;-16498.94;;;11.84;100.00
3590;BME280;1809;48.470;9.226;2023-02-17T01:41:39;-16499.34;;;11.85;100.00
3590;BME280;1809;48.470;9.226;2023-02-17T01:46:33;-16499.06;;;11.84;100.00
3590;BME280;1809;48.470;9.226;2023-02-17T01:48:59;-16497.09;;;11.77;100.00
3590;BME280;1809;48.470;9.226;2023-02-17T01:51:28;-16497.38;;;11.78;100.00
3590;BME280;1809;48.470;9.226;2023-02-17T01:54:00;-16500.19;;;11.89;100.00
3590;BME280;1809;48.470;9.226;2023-02-17T01:56:27;-16498.50;;;11.82;100.00
3590;BME280;1809;48.470;9.226;2023-02-17T01:59:00;-16497.66;;;11.79;100.00
3590;BME280;1809;48.470;9.226;2023-02-17T02:01:28;-16497.81;;;11.80;100.00
3590;BME280;1809;48.470;9.226;2023-02-17T02:03:54;-16495.13;;;11.70;100.00
3590;BME280;1809;48.470;9.226;2023-02-17T02:06:23;-16495.97;;;11.73;100.00
3590;BME280;1809;48.470;9.226;2023-02-17T02:08:58;-16496.81;;;11.76;100.00
3590;BME280;1809;48.470;9.226;2023-02-17T02:11:26;-16498.09;;;11.81;100.00
3590;BME280;1809;48.470;9.226;2023-02-17T02:13:51;-16496.53;;;11.75;100.00
3590;BME280;1809;48.470;9.226;2023-02-17T02:16:26;-16496.53;;;11.75;100.00
3590;BME280;1809;48.470;9.226;2023-02-17T02:19:26;-16497.66;;;11.79;100.00
3590;BME280;1809;48.470;9.226;2023-02-17T02:27:47;-16498.38;;;11.82;100.00
3590;BME280;1809;48.470;9.226;2023-02-17T02:33:10;-16498.78;;;11.83;100.00
3590;BME280;1809;48.470;9.226;2023-02-17T02:40:54;-16494.56;;;11.68;100.00
3590;BME280;1809;48.470;9.226;2023-02-17T02:43:22;-16495.97;;;11.73;100.00
3590;BME280;1809;48.470;9.226;2023-02-17T02:45:48;-16493.16;;;11.63;100.00
3590;BME280;1809;48.470;9.226;2023-02-17T02:48:14;-16494.28;;;11.67;100.00
3590;BME280;1809;48.470;9.226;2023-02-17T03:02:12;-16496.41;;;11.75;100.00
3590;BME280;1809;48.470;9.226;2023-02-17T03:07:31;-16495.56;;;11.72;100.00
3590;BME280;1809;48.470;9.226;2023-02-17T03:09:58;-16496.41;;;11.75;100.00
3590;BME280;1809;48.470;9.226;2023-02-17T03:12:25;-16496.13;;;11.74;100.00
3590;BME280;1809;48.470;9.226;2023-02-17T03:14:59;-16494.84;;;11.69;100.00
3590;BME280;1809;48.470;9.226;2023-02-17T03:17:29;-16495.69;;;11.72;100.00
3590;BME280;1809;48.470;9.226;2023-02-17T03:19:56;-16496.25;;;11.74;100.00
3590;BME280;1809;48.470;9.226;2023-02-17T03:22:28;-16494.72;;;11.69;100.00
3590;BME280;1809;48.470;9.226;2023-02-17T03:24:55;-16494.72;;;11.69;100.00
3590;BME280;1809;48.470;9.226;2023-02-17T03:27:21;-16493.44;;;11.64;100.00
3590;BME280;1809;48.470;9.226;2023-02-17T03:29:46;-16494.00;;;11.66;100.00
3590;BME280;1809;48.470;9.226;2023-02-17T03:32:11;-16493.72;;;11.65;100.00
3590;BME280;1809;48.470;9.226;2023-02-17T03:34:37;-16492.88;;;11.62;100.00
3590;BME280;1809;48.470;9.226;2023-02-17T03:37:02;-16491.91;;;11.59;100.00
3590;BME280;1809;48.470;9.226;2023-02-17T03:39:28;-16492.03;;;11.59;100.00
3590;BME280;1809;48.470;9.226;2023-02-17T03:41:53;-16490.91;;;11.55;100.00
3590;BME280;1809;48.470;9.226;2023-02-17T03:44:18;-16489.50;;;11.50;100.00
3590;BME280;1809;48.470;9.226;2023-02-17T03:46:44;-16489.50;;;11.50;100.00
3590;BME280;1809;48.470;9.226;2023-02-17T03:49:10;-16490.50;;;11.54;100.00
3590;BME280;1809;48.470;9.226;2023-02-17T03:51:35;-16489.50;;;11.50;100.00
3590;BME280;1809;48.470;9.226;2023-02-17T03:54:01;-16490.91;;;11.55;100.00
3590;BME280;1809;48.470;9.226;2023-02-17T03:56:26;-16491.91;;;11.59;100.00
3590;BME280;1809;48.470;9.226;2023-02-17T03:58:51;-16490.63;;;11.54;100.00
3590;BME280;1809;48.470;9.226;2023-02-17T04:01:17;-16490.22;;;11.53;100.00
3590;BME280;1809;48.470;9.226;2023-02-17T04:03:42;-16490.63;;;11.54;100.00
3590;BME280;1809;48.470;9.226;2023-02-17T04:06:08;-16492.59;;;11.61;100.00
3590;BME280;1809;48.470;9.226;2023-02-17T04:08:33;-16491.47;;;11.57;100.00
3590;BME280;1809;48.470;9.226;2023-02-17T04:11:01;-16493.88;;;11.66;100.00
3590;BME280;1809;48.470;9.226;2023-02-17T04:13:27;-16492.75;;;11.62;100.00
3590;BME280;1809;48.470;9.226;2023-02-17T04:15:52;-16492.19;;;11.60;100.00
3590;BME280;1809;48.470;9.226;2023-02-17T04:18:19;-16492.59;;;11.61;100.00
3590;BME280;1809;48.470;9.226;2023-02-17T04:20:47;-16489.66;;;11.51;100.00
3590;BME280;1809;48.470;9.226;2023-02-17T04:23:12;-16487.84;;;11.44;100.00
3590;BME280;1809;48.470;9.226;2023-02-17T04:25:39;-16486.72;;;11.40;100.00
3590;BME280;1809;48.470;9.226;2023-02-17T04:28:05;-16485.72;;;11.37;100.00
3590;BME280;1809;48.470;9.226;2023-02-17T04:30:30;-16484.59;;;11.32;100.00
3590;BME280;1809;48.470;9.226;2023-02-17T04:32:56;-16485.03;;;11.34;100.00
3590;BME280;1809;48.470;9.226;2023-02-17T04:35:22;-16483.75;;;11.29;100.00
3590;BME280;1809;48.470;9.226;2023-02-17T04:37:48;-16482.91;;;11.26;100.00
3590;BME280;1809;48.470;9.226;2023-02-17T04:40:13;-16482.22;;;11.24;100.00
3590;BME280;1809;48.470;9.226;2023-02-17T04:42:39;-16481.09;;;11.20;100.00
3590;BME280;1809;48.470;9.226;2023-02-17T04:45:05;-16480.53;;;11.18;100.00
3590;BME280;1809;48.470;9.226;2023-02-17T04:47:30;-16479.13;;;11.13;100.00
3590;BME280;1809;48.470;9.226;2023-02-17T04:49:56;-16479.97;;;11.16;100.00
3590;BME280;1809;48.470;9.226;2023-02-17T04:52:21;-16479.41;;;11.14;100.00
3590;BME280;1809;48.470;9.226;2023-02-17T04:54:46;-16477.72;;;11.08;100.00
3590;BME280;1809;48.470;9.226;2023-02-17T04:57:12;-16479.13;;;11.13;100.00
3590;BME280;1809;48.470;9.226;2023-02-17T04:59:37;-16478.28;;;11.10;100.00
3590;BME280;1809;48.470;9.226;2023-02-17T05:02:02;-16479.56;;;11.14;100.00
3590;BME280;1809;48.470;9.226;2023-02-17T05:04:28;-16477.59;;;11.07;100.00
3590;BME280;1809;48.470;9.226;2023-02-17T05:06:53;-16479.13;;;11.13;100.00
3590;BME280;1809;48.470;9.226;2023-02-17T05:09:18;-16474.91;;;10.98;100.00
3590;BME280;1809;48.470;9.226;2023-02-17T05:11:44;-16474.63;;;10.97;100.00
3590;BME280;1809;48.470;9.226;2023-02-17T05:14:09;-16475.06;;;10.98;100.00
3590;BME280;1809;48.470;9.226;2023-02-17T05:16:35;-16474.63;;;10.97;100.00
3590;BME280;1809;48.470;9.226;2023-02-17T05:19:00;-16475.47;;;11.00;100.00
3590;BME280;1809;48.470;9.226;2023-02-17T05:21:25;-16476.19;;;11.02;100.00
3590;BME280;1809;48.470;9.226;2023-02-17T05:23:51;-16474.91;;;10.98;100.00
3590;BME280;1809;48.470;9.226;2023-02-17T05:26:16;-16475.75;;;11.01;100.00
3590;BME280;1809;48.470;9.226;2023-02-17T05:28:41;-16476.31;;;11.03;100.00
3590;BME280;1809;48.470;9.226;2023-02-17T05:31:07;-16477.16;;;11.06;100.00
3590;BME280;1809;48.470;9.226;2023-02-17T05:33:32;-16476.03;;;11.02;100.00
3590;BME280;1809;48.470;9.226;2023-02-17T05:36:03;-16476.19;;;11.02;100.00
3590;BME280;1809;48.470;9.226;2023-02-17T05:38:28;-16476.59;;;11.04;100.00
3590;BME280;1809;48.470;9.226;2023-02-17T05:40:54;-16475.91;;;11.01;100.00
3590;BME280;1809;48.470;9.226;2023-02-17T05:43:19;-16478.00;;;11.09;100.00
3590;BME280;1809;48.470;9.226;2023-02-17T05:45:44;-16478.56;;;11.11;100.00
3590;BME280;1809;48.470;9.226;2023-02-17T05:48:10;-16479.97;;;11.16;100.00
3590;BME280;1809;48.470;9.226;2023-02-17T05:50:35;-16479.41;;;11.14;100.00
3590;BME280;1809;48.470;9.226;2023-02-17T05:53:00;-16482.78;;;11.26;100.00
3590;BME280;1809;48.470;9.226;2023-02-17T05:55:26;-16483.34;;;11.28;100.00
3590;BME280;1809;48.470;9.226;2023-02-17T05:57:51;-16483.63;;;11.29;100.00
3590;BME280;1809;48.470;9.226;2023-02-17T06:00:16;-16484.31;;;11.31;100.00
3590;BME280;1809;48.470;9.226;2023-02-17T06:02:42;-16484.19;;;11.31;100.00
3590;BME280;1809;48.470;9.226;2023-02-17T06:05:07;-16484.88;;;11.33;100.00
3590;BME280;1809;48.470;9.226;2023-02-17T06:07:33;-16485.16;;;11.34;100.00
3590;BME280;1809;48.470;9.226;2023-02-17T06:09:58;-16483.91;;;11.30;100.00
3590;BME280;1809;48.470;9.226;2023-02-17T06:12:23;-16486.44;;;11.39;100.00
3590;BME280;1809;48.470;9.226;2023-02-17T06:14:48;-16485.31;;;11.35;100.00
3590;BME280;1809;48.470;9.226;2023-02-17T06:17:14;-16486.28;;;11.39;100.00
3590;BME280;1809;48.470;9.226;2023-02-17T06:19:39;-16487.28;;;11.42;100.00
3590;BME280;1809;48.470;9.226;2023-02-17T06:22:04;-16487.69;;;11.44;100.00
3590;BME280;1809;48.470;9.226;2023-02-17T06:24:30;-16485.72;;;11.37;100.00
3590;BME280;1809;48.470;9.226;2023-02-17T06:26:55;-16481.66;;;11.22;100.00
3590;BME280;1809;48.470;9.226;2023-02-17T06:29:20;-16480.13;;;11.16;100.00
3590;BME280;1809;48.470;9.226;2023-02-17T06:31:46;-16479.41;;;11.14;100.00
3590;BME280;1809;48.470;9.226;2023-02-17T06:34:11;-16480.25;;;11.17;100.00
3590;BME280;1809;48.470;9.226;2023-02-17T06:36:36;-16481.66;;;11.22;100.00
3590;BME280;1809;48.470;9.226;2023-02-17T06:39:02;-16482.22;;;11.24;100.00
3590;BME280;1809;48.470;9.226;2023-02-17T06:41:27;-16485.44;;;11.36;100.00
3590;BME280;1809;48.470;9.226;2023-02-17T06:43:53;-16486.72;;;11.40;100.00
3590;BME280;1809;48.470;9.226;2023-02-17T06:46:18;-16487.84;;;11.44;100.00
3590;BME280;1809;48.470;9.226;2023-02-17T06:48:43;-16489.94;;;11.52;100.00
3590;BME280;1809;48.470;9.226;2023-02-17T06:51:08;-16489.81;;;11.51;100.00
3590;BME280;1809;48.470;9.226;2023-02-17T06:53:34;-16490.06;;;11.52;100.00
3590;BME280;1809;48.470;9.226;2023-02-17T06:55:59;-16490.63;;;11.54;100.00
3590;BME280;1809;48.470;9.226;2023-02-17T06:58:24;-16489.81;;;11.51;100.00
3590;BME280;1809;48.470;9.226;2023-02-17T07:00:50;-16489.09;;;11.49;100.00
3590;BME280;1809;48.470;9.226;2023-02-17T07:03:15;-16490.91;;;11.55;100.00
3590;BME280;1809;48.470;9.226;2023-02-17T07:05:41;-16491.19;;;11.56;100.00
3590;BME280;1809;48.470;9.226;2023-02-17T07:08:06;-16490.22;;;11.53;100.00
3590;BME280;1809;48.470;9.226;2023-02-17T07:10:32;-16489.94;;;11.52;100.00
3590;BME280;1809;48.470;9.226;2023-02-17T07:12:58;-16488.97;;;11.48;100.00
3590;BME280;1809;48.470;9.226;2023-02-17T07:15:23;-16489.94;;;11.52;100.00
3590;BME280;1809;48.470;9.226;2023-02-17T07:17:48;-16489.81;;;11.51;100.00
3590;BME280;1809;48.470;9.226;2023-02-17T07:20:14;-16489.81;;;11.51;100.00
3590;BME280;1809;48.470;9.226;2023-02-17T07:22:39;-16490.06;;;11.52;100.00
3590;BME280;1809;48.470;9.226;2023-02-17T07:25:05;-16491.47;;;11.57;100.00
3590;BME280;1809;48.470;9.226;2023-02-17T07:27:31;-16491.19;;;11.56;100.00
3590;BME280;1809;48.470;9.226;2023-02-17T07:29:58;-16491.19;;;11.56;100.00
3590;BME280;1809;48.470;9.226;2023-02-17T07:32:24;-16491.47;;;11.57;100.00
3590;BME280;1809;48.470;9.226;2023-02-17T07:34:49;-16492.03;;;11.59;100.00
3590;BME280;1809;48.470;9.226;2023-02-17T07:37:14;-16494.28;;;11.67;100.00
3590;BME280;1809;48.470;9.226;2023-02-17T07:39:40;-16496.81;;;11.76;100.00
3590;BME280;1809;48.470;9.226;2023-02-17T07:42:05;-16497.09;;;11.77;100.00
3590;BME280;1809;48.470;9.226;2023-02-17T07:44:31;-16495.13;;;11.70;100.00
3590;BME280;1809;48.470;9.226;2023-02-17T07:46:56;-16496.97;;;11.77;100.00
3590;BME280;1809;48.470;9.226;2023-02-17T07:49:22;-16496.53;;;11.75;100.00
3590;BME280;1809;48.470;9.226;2023-02-17T07:51:47;-16495.97;;;11.73;100.00
3590;BME280;1809;48.470;9.226;2023-02-17T07:54:12;-16499.78;;;11.87;100.00
3590;BME280;1809;48.470;9.226;2023-02-17T07:56:38;-16502.56;;;11.97;100.00
3590;BME280;1809;48.470;9.226;2023-02-17T07:59:08;-16501.59;;;11.94;100.00
3590;BME280;1809;48.470;9.226;2023-02-17T08:01:33;-16505.25;;;12.07;100.00
3590;BME280;1809;48.470;9.226;2023-02-17T08:03:58;-16506.94;;;12.13;100.00
3590;BME280;1809;48.470;9.226;2023-02-17T08:06:25;-16504.97;;;12.06;100.00
3590;BME280;1809;48.470;9.226;2023-02-17T08:08:51;-16506.66;;;12.12;100.00
3590;BME280;1809;48.470;9.226;2023-02-17T08:11:35;-16506.50;;;12.11;100.00
3590;BME280;1809;48.470;9.226;2023-02-17T08:14:21;-16502.72;;;11.98;100.00
3590;BME280;1809;48.470;9.226;2023-02-17T08:16:46;-16500.47;;;11.90;100.00
3590;BME280;1809;48.470;9.226;2023-02-17T08:19:12;-16501.31;;;11.93;100.00
3590;BME280;1809;48.470;9.226;2023-02-17T08:21:37;-16500.19;;;11.89;100.00
3590;BME280;1809;48.470;9.226;2023-02-17T08:24:03;-16500.19;;;11.89;100.00
3590;BME280;1809;48.470;9.226;2023-02-17T08:26:28;-16500.19;;;11.89;100.00
3590;BME280;1809;48.470;9.226;2023-02-17T08:28:54;-16500.47;;;11.90;100.00
3590;BME280;1809;48.470;9.226;2023-02-17T08:31:23;-16501.59;;;11.94;100.00
3590;BME280;1809;48.470;9.226;2023-02-17T08:33:50;-16504.25;;;12.03;100.00
3590;BME280;1809;48.470;9.226;2023-02-17T08:36:16;-16504.69;;;12.05;100.00
3590;BME280;1809;48.470;9.226;2023-02-17T08:38:42;-16509.31;;;12.21;100.00
3590;BME280;1809;48.470;9.226;2023-02-17T08:41:21;-16509.16;;;12.21;100.00
3590;BME280;1809;48.470;9.226;2023-02-17T08:43:48;-16514.50;;;12.40;100.00
3590;BME280;1809;48.470;9.226;2023-02-17T08:46:13;-16518.44;;;12.54;100.00
3590;BME280;1809;48.470;9.226;2023-02-17T08:48:40;-16521.25;;;12.64;100.00
3590;BME280;1809;48.470;9.226;2023-02-17T08:51:05;-16524.63;;;12.76;100.00
3590;BME280;1809;48.470;9.226;2023-02-17T08:53:32;-16523.06;;;12.71;100.00
3590;BME280;1809;48.470;9.226;2023-02-17T08:55:58;-16520.97;;;12.63;100.00
3590;BME280;1809;48.470;9.226;2023-02-17T08:58:23;-16519.69;;;12.59;100.00
3590;BME280;1809;48.470;9.226;2023-02-17T09:00:49;-16522.38;;;12.68;100.00
3590;BME280;1809;48.470;9.226;2023-02-17T09:03:15;-16524.31;;;12.75;100.00
3590;BME280;1809;48.470;9.226;2023-02-17T09:05:40;-16524.75;;;12.77;100.00
3590;BME280;1809;48.470;9.226;2023-02-17T09:08:06;-16527.69;;;12.87;100.00
3590;BME280;1809;48.470;9.226;2023-02-17T09:10:31;-16531.75;;;13.02;100.00
3590;BME280;1809;48.470;9.226;2023-02-17T09:12:57;-16537.81;;;13.24;100.00
3590;BME280;1809;48.470;9.226;2023-02-17T09:15:22;-16538.38;;;13.26;100.00
3590;BME280;1809;48.470;9.226;2023-02-17T09:17:47;-16541.16;;;13.36;100.00
3590;BME280;1809;48.470;9.226;2023-02-17T09:20:13;-16539.75;;;13.31;100.00
3590;BME280;1809;48.470;9.226;2023-02-17T09:22:38;-16540.47;;;13.33;100.00
3590;BME280;1809;48.470;9.226;2023-02-17T09:25:04;-16541.72;;;13.38;100.00
3590;BME280;1809;48.470;9.226;2023-02-17T09:27:30;-16543.41;;;13.44;100.00
3590;BME280;1809;48.470;9.226;2023-02-17T09:29:56;-16546.50;;;13.55;100.00
3590;BME280;1809;48.470;9.226;2023-02-17T09:32:21;-16544.25;;;13.47;100.00
3590;BME280;1809;48.470;9.226;2023-02-17T09:34:47;-16543.41;;;13.44;100.00
3590;BME280;1809;48.470;9.226;2023-02-17T09:37:15;-16541.44;;;13.37;100.00
3590;BME280;1809;48.470;9.226;2023-02-17T09:39:42;-16543.28;;;13.43;100.00
3590;BME280;1809;48.470;9.226;2023-02-17T09:42:18;-16545.09;;;13.50;100.00
3590;BME280;1809;48.470;9.226;2023-02-17T09:44:48;-16541.31;;;13.36;100.00
3590;BME280;1809;48.470;9.226;2023-02-17T09:47:21;-16537.53;;;13.23;100.00
3590;BME280;1809;48.470;9.226;2023-02-17T09:49:54;-16535.28;;;13.15;100.00
3590;BME280;1809;48.470;9.226;2023-02-17T09:52:36;-16534.84;;;13.13;100.00
3590;BME280;1809;48.470;9.226;2023-02-17T09:55:24;-16533.88;;;13.10;100.00
3590;BME280;1809;48.470;9.226;2023-02-17T10:00:24;-16530.22;;;12.97;100.00
3590;BME280;1809;48.470;9.226;2023-02-17T10:05:23;-16528.41;;;12.90;100.00
3590;BME280;1809;48.470;9.226;2023-02-17T10:10:20;-16532.75;;;13.06;100.00
3590;BME280;1809;48.470;9.226;2023-02-17T10:12:51;-16536.69;;;13.20;100.00
3590;BME280;1809;48.470;9.226;2023-02-17T10:15:34;-16540.59;;;13.34;100.00
3590;BME280;1809;48.470;9.226;2023-02-17T10:23:22;-16542.16;;;13.39;100.00
3590;BME280;1809;48.470;9.226;2023-02-17T10:28:46;-16552.09;;;13.75;100.00
3590;BME280;1809;48.470;9.226;2023-02-17T10:33:52;-16560.81;;;14.07;100.00
3590;BME280;1809;48.470;9.226;2023-02-17T10:36:26;-16569.50;;;14.38;100.00
3590;BME280;1809;48.470;9.226;2023-02-17T10:42:01;-16567.81;;;14.32;100.00
3590;BME280;1809;48.470;9.226;2023-02-17T10:44:36;-16569.78;;;14.39;100.00
3590;BME280;1809;48.470;9.226;2023-02-17T10:47:02;-16575.25;;;14.59;100.00
3590;BME280;1809;48.470;9.226;2023-02-17T10:49:33;-16574.97;;;14.58;100.00
3590;BME280;1809;48.470;9.226;2023-02-17T10:52:10;-16574.81;;;14.57;100.00
3590;BME280;1809;48.470;9.226;2023-02-17T10:54:44;-16570.91;;;14.43;100.00
3590;BME280;1809;48.470;9.226;2023-02-17T10:57:11;-16570.63;;;14.42;100.00
3590;BME280;1809;48.470;9.226;2023-02-17T10:59:44;-16578.91;;;14.72;100.00
3590;BME280;1809;48.470;9.226;2023-02-17T11:02:19;-16588.84;;;15.07;100.00
3590;BME280;1809;48.470;9.226;2023-02-17T11:04:51;-16589.69;;;15.11;100.00
3590;BME280;1809;48.470;9.226;2023-02-17T11:07:20;-16583.94;;;14.90;100.00
3590;BME280;1809;48.470;9.226;2023-02-17T11:09:53;-16582.69;;;14.85;100.00
3590;BME280;1809;48.470;9.226;2023-02-17T11:14:54;-16579.03;;;14.72;100.00
3590;BME280;1809;48.470;9.226;2023-02-17T11:19:58;-16571.47;;;14.45;100.00
3590;BME280;1809;48.470;9.226;2023-02-17T11:24:59;-16585.47;;;14.95;100.00
3590;BME280;1809;48.470;9.226;2023-02-17T11:27:25;-16586.03;;;14.97;100.00
3590;BME280;1809;48.470;9.226;2023-02-17T11:29:51;-16592.63;;;15.21;100.00
3590;BME280;1809;48.470;9.226;2023-02-17T11:32:17;-16599.63;;;15.46;100.00
3590;BME280;1809;48.470;9.226;2023-02-17T11:34:55;-16602.03;;;15.55;100.00
3590;BME280;1809;48.470;9.226;2023-02-17T11:37:22;-16598.09;;;15.41;100.00
3590;BME280;1809;48.470;9.226;2023-02-17T11:39:53;-16590.81;;;15.15;100.00
3590;BME280;1809;48.470;9.226;2023-02-17T11:42:30;-16586.88;;;15.00;100.00
3590;BME280;1809;48.470;9.226;2023-02-17T11:44:58;-16584.91;;;14.93;100.00
3590;BME280;1809;48.470;9.226;2023-02-17T11:47:33;-16585.75;;;14.96;100.00
3590;BME280;1809;48.470;9.226;2023-02-17T11:50:22;-16580.44;;;14.77;100.00
3590;BME280;1809;48.470;9.226;2023-02-17T11:58:46;-16577.91;;;14.68;100.00
3590;BME280;1809;48.470;9.226;2023-02-17T12:01:25;-16576.50;;;14.63;100.00
3590;BME280;1809;48.470;9.226;2023-02-17T12:04:22;-16571.88;;;14.46;100.00
3590;BME280;1809;48.470;9.226;2023-02-17T12:12:35;-16578.47;;;14.70;100.00
3590;BME280;1809;48.470;9.226;2023-02-17T12:33:51;-16566.84;;;14.28;100.00
3590;BME280;1809;48.470;9.226;2023-02-17T12:36:22;-16567.25;;;14.30;100.00
3590;BME280;1809;48.470;9.226;2023-02-17T12:38:55;-16568.66;;;14.35;100.00
3590;BME280;1809;48.470;9.226;2023-02-17T12:44:21;-16567.53;;;14.31;100.00
3590;BME280;1809;48.470;9.226;2023-02-17T12:46:53;-16566.69;;;14.28;100.00
3590;BME280;1809;48.470;9.226;2023-02-17T12:49:33;-16565.00;;;14.22;100.00
3590;BME280;1809;48.470;9.226;2023-02-17T12:52:27;-16563.59;;;14.17;100.00
3590;BME280;1809;48.470;9.226;2023-02-17T12:55:02;-16563.75;;;14.17;100.00
3590;BME280;1809;48.470;9.226;2023-02-17T12:57:40;-16564.31;;;14.19;100.00
3590;BME280;1809;48.470;9.226;2023-02-17T13:00:23;-16561.09;;;14.08;100.00
3590;BME280;1809;48.470;9.226;2023-02-17T13:02:51;-16561.09;;;14.08;100.00
3590;BME280;1809;48.470;9.226;2023-02-17T13:05:26;-16564.16;;;14.19;100.00
3590;BME280;1809;48.470;9.226;2023-02-17T13:07:57;-16561.38;;;14.09;100.00
3590;BME280;1809;48.470;9.226;2023-02-17T13:13:26;-16566.13;;;14.26;100.00
3590;BME280;1809;48.470;9.226;2023-02-17T13:16:09;-16568.94;;;14.36;100.00
3590;BME280;1809;48.470;9.226;2023-02-17T13:18:37;-16568.38;;;14.34;100.00
3590;BME280;1809;48.470;9.226;2023-02-17T13:24:15;-16571.47;;;14.45;100.00
3590;BME280;1809;48.470;9.226;2023-02-17T13:26:54;-16573.84;;;14.53;100.00
3590;BME280;1809;48.470;9.226;2023-02-17T13:34:26;-16579.75;;;14.75;100.00
3590;BME280;1809;48.470;9.226;2023-02-17T13:36:51;-16579.88;;;14.75;100.00
3590;BME280;1809;48.470;9.226;2023-02-17T13:41:56;-16579.03;;;14.72;100.00
3590;BME280;1809;48.470;9.226;2023-02-17T13:46:59;-16574.56;;;14.56;100.00
3590;BME280;1809;48.470;9.226;2023-02-17T13:49:28;-16575.09;;;14.58;100.00
3590;BME280;1809;48.470;9.226;2023-02-17T13:52:06;-16575.09;;;14.58;100.00
3590;BME280;1809;48.470;9.226;2023-02-17T13:54:32;-16574.28;;;14.55;100.00
3590;BME280;1809;48.470;9.226;2023-02-17T13:56:57;-16573.97;;;14.54;100.00
3590;BME280;1809;48.470;9.226;2023-02-17T13:59:24;-16574.56;;;14.56;100.00
3590;BME280;1809;48.470;9.226;2023-02-17T14:01:51;-16573.28;;;14.51;100.00
3590;BME280;1809;48.470;9.226;2023-02-17T14:04:30;-16573.16;;;14.51;100.00
3590;BME280;1809;48.470;9.226;2023-02-17T14:06:57;-16573.44;;;14.52;100.00
3590;BME280;1809;48.470;9.226;2023-02-17T14:09:31;-16576.22;;;14.62;100.00
3590;BME280;1809;48.470;9.226;2023-02-17T14:11:58;-16576.22;;;14.62;100.00
3590;BME280;1809;48.470;9.226;2023-02-17T14:14:32;-16580.56;;;14.78;100.00
3590;BME280;1809;48.470;9.226;2023-02-17T14:17:03;-16580.72;;;14.78;100.00
3590;BME280;1809;48.470;9.226;2023-02-17T14:19:43;-16587.16;;;15.01;100.00
3590;BME280;1809;48.470;9.226;2023-02-17T14:22:41;-16592.63;;;15.21;100.00
3590;BME280;1809;48.470;9.226;2023-02-17T14:25:11;-16593.34;;;15.24;100.00
3590;BME280;1809;48.470;9.226;2023-02-17T14:27:45;-16591.94;;;15.19;100.00
3590;BME280;1809;48.470;9.226;2023-02-17T14:30:26;-16592.50;;;15.21;100.00
3590;BME280;1809;48.470;9.226;2023-02-17T14:36:01;-16593.34;;;15.24;100.00
3590;BME280;1809;48.470;9.226;2023-02-17T14:38:35;-16597.13;;;15.37;100.00
3590;BME280;1809;48.470;9.226;2023-02-17T14:41:06;-16600.19;;;15.48;100.00
3590;BME280;1809;48.470;9.226;2023-02-17T14:43:33;-16603.72;;;15.61;100.00
3590;BME280;1809;48.470;9.226;2023-02-17T14:45:59;-16600.34;;;15.49;100.00
3590;BME280;1809;48.470;9.226;2023-02-17T14:48:24;-16596.97;;;15.37;100.00
3590;BME280;1809;48.470;9.226;2023-02-17T14:50:50;-16594.16;;;15.27;100.00
3590;BME280;1809;48.470;9.226;2023-02-17T14:53:28;-16600.34;;;15.49;100.00
3590;BME280;1809;48.470;9.226;2023-02-17T14:56:02;-16605.66;;;15.68;100.00
3590;BME280;1809;48.470;9.226;2023-02-17T14:58:30;-16606.50;;;15.71;100.00